createdAt,value
2018-05-21T00:00:10.310Z,6.77
2018-05-21T00:01:10.354Z,6.78
2018-05-21T00:02:10.355Z,6.78
2018-05-21T00:03:10.349Z,6.79
2018-05-21T00:04:10.483Z,6.74
2018-05-21T00:05:10.418Z,6.68
2018-05-21T00:06:10.422Z,6.70
2018-05-21T00:07:10.361Z,6.74
2018-05-21T00:08:10.424Z,6.75
2018-05-21T00:09:10.422Z,6.72
2018-05-21T00:10:10.424Z,6.70
2018-05-21T00:11:10.391Z,6.71
2018-05-21T00:12:10.389Z,6.70
2018-05-21T00:13:10.386Z,6.64
2018-05-21T00:14:10.345Z,6.68
2018-05-21T00:15:10.448Z,6.71
2018-05-21T00:16:10.388Z,6.72
2018-05-21T00:17:10.457Z,6.71
2018-05-21T00:18:10.426Z,6.71
2018-05-21T00:19:10.471Z,6.70
2018-05-21T00:20:10.445Z,6.68
2018-05-21T00:21:10.369Z,6.68
2018-05-21T00:22:10.420Z,6.70
2018-05-21T00:23:10.306Z,6.66
2018-05-21T00:24:10.360Z,6.64
2018-05-21T00:25:10.362Z,6.67
2018-05-21T00:26:10.422Z,6.67
2018-05-21T00:27:10.333Z,6.66
2018-05-21T00:28:10.365Z,6.61
2018-05-21T00:29:10.396Z,6.60
2018-05-21T00:30:10.390Z,6.59
2018-05-21T00:31:10.405Z,6.57
2018-05-21T00:32:10.469Z,6.56
2018-05-21T00:33:10.391Z,6.60
2018-05-21T00:34:10.452Z,6.61
2018-05-21T00:35:10.409Z,6.60
2018-05-21T00:36:10.379Z,6.57
2018-05-21T00:37:10.443Z,6.60
2018-05-21T00:38:10.420Z,6.61
2018-05-21T00:39:10.467Z,6.60
2018-05-21T00:40:10.363Z,6.56
2018-05-21T00:41:10.470Z,6.55
2018-05-21T00:42:10.468Z,6.51
2018-05-21T00:43:10.467Z,6.47
2018-05-21T00:44:10.446Z,6.44
2018-05-21T00:45:10.420Z,6.41
2018-05-21T00:46:10.419Z,6.45
2018-05-21T00:47:10.422Z,6.49
2018-05-21T00:48:10.515Z,6.49
2018-05-21T00:49:10.425Z,6.52
2018-05-21T00:50:10.488Z,6.56
2018-05-21T00:51:10.448Z,6.55
2018-05-21T00:52:10.448Z,6.59
2018-05-21T00:53:10.451Z,6.68
2018-05-21T00:54:10.387Z,6.67
2018-05-21T00:55:10.453Z,6.64
2018-05-21T00:56:10.451Z,6.60
2018-05-21T00:57:10.425Z,6.59
2018-05-21T00:58:10.391Z,6.55
2018-05-21T00:59:10.457Z,6.51
2018-05-21T01:00:10.392Z,6.55
2018-05-21T01:01:10.458Z,6.49
2018-05-21T01:02:10.462Z,6.47
2018-05-21T01:03:10.466Z,6.43
2018-05-21T01:04:10.457Z,6.37
2018-05-21T01:05:10.458Z,6.37
2018-05-21T01:06:10.397Z,6.40
2018-05-21T01:07:10.459Z,6.40
2018-05-21T01:08:10.462Z,6.41
2018-05-21T01:09:10.466Z,6.40
2018-05-21T01:10:10.431Z,6.37
2018-05-21T01:11:10.485Z,6.34
2018-05-21T01:12:10.503Z,6.29
2018-05-21T01:13:10.440Z,6.26
2018-05-21T01:14:10.426Z,6.27
2018-05-21T01:15:10.364Z,6.30
2018-05-21T01:16:10.453Z,6.38
2018-05-21T01:17:10.441Z,6.38
2018-05-21T01:18:10.411Z,6.37
2018-05-21T01:19:10.392Z,6.34
2018-05-21T01:20:10.435Z,6.41
2018-05-21T01:21:10.470Z,6.44
2018-05-21T01:22:10.469Z,6.44
2018-05-21T01:23:10.408Z,6.47
2018-05-21T01:24:10.471Z,6.48
2018-05-21T01:25:10.409Z,6.47
2018-05-21T01:26:10.439Z,6.44
2018-05-21T01:27:10.412Z,6.45
2018-05-21T01:28:10.418Z,6.41
2018-05-21T01:29:10.476Z,6.38
2018-05-21T01:30:10.480Z,6.36
2018-05-21T01:31:10.415Z,6.34
2018-05-21T01:32:10.449Z,6.30
2018-05-21T01:33:10.436Z,6.29
2018-05-21T01:34:10.477Z,6.23
2018-05-21T01:35:10.431Z,6.19
2018-05-21T01:36:10.498Z,6.14
2018-05-21T01:37:10.403Z,6.16
2018-05-21T01:38:10.479Z,6.14
2018-05-21T01:39:10.443Z,6.12
2018-05-21T01:40:10.413Z,6.16
2018-05-21T01:41:10.459Z,6.14
2018-05-21T01:42:10.414Z,6.14
2018-05-21T01:43:10.486Z,6.14
2018-05-21T01:44:10.420Z,6.14
2018-05-21T01:45:10.369Z,6.19
2018-05-21T01:46:10.426Z,6.18
2018-05-21T01:47:10.499Z,6.15
2018-05-21T01:48:10.422Z,6.18
2018-05-21T01:49:10.494Z,6.18
2018-05-21T01:50:10.509Z,6.16
2018-05-21T01:51:10.424Z,6.15
2018-05-21T01:52:10.395Z,6.12
2018-05-21T01:53:10.491Z,6.08
2018-05-21T01:54:10.512Z,6.03
2018-05-21T01:55:10.454Z,6.00
2018-05-21T01:56:10.491Z,5.99
2018-05-21T01:57:10.410Z,5.96
2018-05-21T01:58:10.391Z,5.96
2018-05-21T01:59:10.398Z,5.95
2018-05-21T02:00:10.492Z,5.91
2018-05-21T02:01:10.473Z,5.84
2018-05-21T02:02:10.417Z,5.81
2018-05-21T02:03:10.457Z,5.79
2018-05-21T02:04:10.498Z,5.77
2018-05-21T02:05:10.530Z,5.78
2018-05-21T02:06:10.423Z,5.74
2018-05-21T02:07:10.524Z,5.79
2018-05-21T02:08:10.414Z,5.89
2018-05-21T02:09:10.400Z,5.91
2018-05-21T02:10:10.478Z,5.92
2018-05-21T02:11:10.476Z,5.96
2018-05-21T02:12:10.481Z,6.03
2018-05-21T02:13:10.487Z,6.02
2018-05-21T02:14:10.512Z,6.03
2018-05-21T02:15:10.543Z,6.04
2018-05-21T02:16:10.427Z,6.03
2018-05-21T02:17:10.411Z,5.99
2018-05-21T02:18:10.508Z,5.96
2018-05-21T02:19:10.513Z,5.93
2018-05-21T02:20:10.488Z,5.89
2018-05-21T02:21:10.482Z,5.88
2018-05-21T02:22:10.513Z,5.88
2018-05-21T02:23:10.449Z,5.91
2018-05-21T02:24:10.507Z,5.92
2018-05-21T02:25:10.517Z,5.92
2018-05-21T02:26:10.444Z,5.91
2018-05-21T02:27:10.511Z,5.89
2018-05-21T02:28:10.519Z,5.91
2018-05-21T02:29:10.517Z,5.89
2018-05-21T02:30:10.516Z,5.92
2018-05-21T02:31:10.455Z,5.93
2018-05-21T02:32:10.484Z,5.92
2018-05-21T02:33:10.455Z,5.91
2018-05-21T02:34:10.519Z,5.93
2018-05-21T02:35:10.464Z,5.93
2018-05-21T02:36:10.517Z,6.06
2018-05-21T02:37:10.454Z,6.11
2018-05-21T02:38:10.454Z,6.09
2018-05-21T02:39:10.522Z,6.08
2018-05-21T02:40:10.514Z,6.04
2018-05-21T02:41:10.538Z,6.08
2018-05-21T02:42:10.503Z,6.03
2018-05-21T02:43:10.547Z,5.99
2018-05-21T02:44:10.502Z,5.97
2018-05-21T02:45:10.563Z,5.95
2018-05-21T02:46:10.422Z,5.91
2018-05-21T02:47:10.525Z,5.89
2018-05-21T02:48:10.450Z,5.86
2018-05-21T02:49:10.492Z,5.86
2018-05-21T02:50:10.484Z,5.84
2018-05-21T02:51:10.484Z,5.82
2018-05-21T02:52:10.524Z,5.78
2018-05-21T02:53:10.452Z,5.75
2018-05-21T02:54:10.530Z,5.71
2018-05-21T02:55:10.548Z,5.68
2018-05-21T02:56:10.506Z,5.68
2018-05-21T02:57:10.435Z,5.67
2018-05-21T02:58:10.439Z,5.70
2018-05-21T02:59:10.440Z,5.78
2018-05-21T03:00:10.503Z,5.77
2018-05-21T03:01:10.491Z,5.75
2018-05-21T03:02:10.488Z,5.73
2018-05-21T03:03:10.535Z,5.71
2018-05-21T03:04:10.537Z,5.67
2018-05-21T03:05:10.535Z,5.62
2018-05-21T03:06:10.497Z,5.60
2018-05-21T03:07:10.437Z,5.62
2018-05-21T03:08:10.451Z,5.60
2018-05-21T03:09:10.505Z,5.56
2018-05-21T03:10:10.566Z,5.60
2018-05-21T03:11:10.588Z,5.62
2018-05-21T03:12:10.446Z,5.63
2018-05-21T03:13:10.559Z,5.63
2018-05-21T03:14:10.521Z,5.59
2018-05-21T03:15:10.558Z,5.57
2018-05-21T03:16:10.549Z,5.57
2018-05-21T03:17:10.563Z,5.53
2018-05-21T03:18:10.569Z,5.51
2018-05-21T03:19:10.548Z,5.45
2018-05-21T03:20:10.470Z,5.45
2018-05-21T03:21:10.590Z,5.45
2018-05-21T03:22:10.522Z,5.45
2018-05-21T03:23:10.501Z,5.49
2018-05-21T03:24:10.489Z,5.53
2018-05-21T03:25:10.549Z,5.53
2018-05-21T03:26:10.486Z,5.52
2018-05-21T03:27:10.551Z,5.48
2018-05-21T03:28:10.511Z,5.45
2018-05-21T03:29:10.580Z,5.46
2018-05-21T03:30:10.530Z,5.51
2018-05-21T03:31:10.569Z,5.51
2018-05-21T03:32:10.454Z,5.48
2018-05-21T03:33:10.525Z,5.45
2018-05-21T03:34:10.476Z,5.45
2018-05-21T03:35:10.460Z,5.41
2018-05-21T03:36:10.534Z,5.40
2018-05-21T03:37:10.595Z,5.38
2018-05-21T03:38:10.498Z,5.35
2018-05-21T03:39:10.514Z,5.37
2018-05-21T03:40:10.580Z,5.38
2018-05-21T03:41:10.555Z,5.42
2018-05-21T03:42:10.558Z,5.48
2018-05-21T03:43:10.537Z,5.57
2018-05-21T03:44:10.561Z,5.60
2018-05-21T03:45:10.606Z,5.63
2018-05-21T03:46:10.579Z,5.59
2018-05-21T03:47:10.538Z,5.57
2018-05-21T03:48:10.582Z,5.57
2018-05-21T03:49:10.525Z,5.53
2018-05-21T03:50:10.489Z,5.56
2018-05-21T03:51:10.565Z,5.53
2018-05-21T03:52:10.534Z,5.55
2018-05-21T03:53:10.563Z,5.53
2018-05-21T03:54:10.470Z,5.56
2018-05-21T03:55:10.534Z,5.56
2018-05-21T03:56:10.470Z,5.59
2018-05-21T03:57:10.566Z,5.60
2018-05-21T03:58:10.542Z,5.62
2018-05-21T03:59:10.603Z,5.60
2018-05-21T04:00:10.593Z,5.66
2018-05-21T04:01:10.526Z,5.67
2018-05-21T04:02:10.517Z,5.66
2018-05-21T04:03:10.431Z,5.67
2018-05-21T04:04:10.438Z,5.67
2018-05-21T04:05:10.475Z,5.67
2018-05-21T04:06:10.474Z,5.68
2018-05-21T04:07:10.473Z,5.67
2018-05-21T04:08:10.471Z,5.67
2018-05-21T04:09:10.524Z,5.70
2018-05-21T04:10:10.463Z,5.68
2018-05-21T04:11:10.589Z,5.71
2018-05-21T04:12:10.562Z,5.75
2018-05-21T04:13:10.598Z,5.78
2018-05-21T04:14:10.605Z,5.81
2018-05-21T04:15:10.583Z,5.85
2018-05-21T04:16:10.610Z,5.85
2018-05-21T04:17:10.541Z,5.86
2018-05-21T04:18:10.582Z,5.89
2018-05-21T04:19:10.606Z,5.92
2018-05-21T04:20:10.616Z,5.93
2018-05-21T04:21:10.485Z,6.03
2018-05-21T04:22:10.472Z,6.08
2018-05-21T04:23:10.577Z,6.14
2018-05-21T04:24:10.580Z,6.18
2018-05-21T04:25:10.576Z,6.18
2018-05-21T04:26:10.494Z,6.25
2018-05-21T04:27:10.587Z,6.31
2018-05-21T04:28:10.609Z,6.34
2018-05-21T04:29:10.489Z,6.38
2018-05-21T04:30:10.591Z,6.41
2018-05-21T04:31:10.587Z,6.47
2018-05-21T04:32:10.621Z,6.52
2018-05-21T04:33:10.494Z,6.55
2018-05-21T04:34:10.572Z,6.57
2018-05-21T04:35:10.620Z,6.57
2018-05-21T04:36:10.619Z,6.64
2018-05-21T04:37:10.495Z,6.68
2018-05-21T04:38:10.619Z,6.78
2018-05-21T04:39:10.635Z,6.86
2018-05-21T04:40:10.494Z,6.90
2018-05-21T04:41:10.554Z,6.93
2018-05-21T04:42:10.594Z,6.94
2018-05-21T04:43:10.559Z,6.95
2018-05-21T04:44:10.580Z,7.00
2018-05-21T04:45:10.602Z,7.02
2018-05-21T04:46:10.555Z,7.07
2018-05-21T04:47:10.508Z,7.09
2018-05-21T04:48:10.520Z,7.18
2018-05-21T04:49:10.575Z,7.22
2018-05-21T04:50:10.540Z,7.23
2018-05-21T04:51:10.603Z,7.26
2018-05-21T04:52:10.634Z,7.30
2018-05-21T04:53:10.696Z,7.34
2018-05-21T04:54:10.639Z,7.38
2018-05-21T04:55:10.570Z,7.45
2018-05-21T04:56:10.627Z,7.52
2018-05-21T04:57:10.578Z,7.56
2018-05-21T04:58:10.575Z,7.64
2018-05-21T04:59:10.631Z,7.74
2018-05-21T05:00:10.588Z,7.86
2018-05-21T05:01:10.586Z,7.90
2018-05-21T05:02:10.635Z,7.92
2018-05-21T05:03:10.570Z,7.95
2018-05-21T05:04:10.518Z,7.99
2018-05-21T05:05:10.647Z,8.05
2018-05-21T05:06:10.581Z,8.09
2018-05-21T05:07:10.668Z,8.12
2018-05-21T05:08:10.574Z,8.15
2018-05-21T05:09:10.588Z,8.17
2018-05-21T05:10:10.540Z,8.23
2018-05-21T05:11:10.544Z,8.38
2018-05-21T05:12:10.557Z,8.47
2018-05-21T05:13:10.614Z,8.56
2018-05-21T05:14:10.502Z,8.64
2018-05-21T05:15:10.489Z,8.72
2018-05-21T05:16:10.562Z,8.79
2018-05-21T05:17:10.559Z,8.89
2018-05-21T05:18:10.604Z,9.02
2018-05-21T05:19:10.606Z,9.11
2018-05-21T05:20:10.529Z,9.20
2018-05-21T05:21:10.670Z,9.34
2018-05-21T05:22:10.522Z,9.46
2018-05-21T05:23:10.567Z,9.58
2018-05-21T05:24:10.480Z,9.69
2018-05-21T05:25:10.633Z,9.80
2018-05-21T05:26:10.553Z,9.87
2018-05-21T05:27:10.526Z,10.00
2018-05-21T05:28:10.480Z,10.13
2018-05-21T05:29:10.560Z,10.21
2018-05-21T05:30:10.578Z,10.28
2018-05-21T05:31:10.510Z,10.39
2018-05-21T05:32:10.563Z,10.64
2018-05-21T05:33:10.631Z,10.87
2018-05-21T05:34:10.574Z,11.16
2018-05-21T05:35:10.566Z,11.38
2018-05-21T05:36:10.564Z,11.64
2018-05-21T05:37:10.564Z,11.84
2018-05-21T05:38:10.567Z,12.09
2018-05-21T05:39:10.634Z,12.25
2018-05-21T05:40:10.569Z,12.54
2018-05-21T05:41:10.635Z,12.69
2018-05-21T05:42:10.741Z,12.95
2018-05-21T05:43:10.576Z,13.17
2018-05-21T05:44:10.639Z,13.35
2018-05-21T05:45:10.639Z,13.59
2018-05-21T05:46:10.577Z,13.86
2018-05-21T05:47:10.574Z,14.18
2018-05-21T05:48:10.640Z,14.54
2018-05-21T05:49:10.572Z,14.84
2018-05-21T05:50:10.664Z,15.10
2018-05-21T05:51:10.578Z,15.33
2018-05-21T05:52:10.515Z,15.55
2018-05-21T05:53:10.619Z,15.73
2018-05-21T05:54:10.514Z,15.90
2018-05-21T05:55:10.627Z,16.06
2018-05-21T05:56:10.500Z,16.22
2018-05-21T05:57:10.627Z,16.41
2018-05-21T05:58:10.512Z,16.54
2018-05-21T05:59:10.521Z,16.65
2018-05-21T06:00:10.625Z,16.66
2018-05-21T06:01:10.605Z,16.69
2018-05-21T06:02:10.686Z,16.76
2018-05-21T06:03:10.683Z,16.91
2018-05-21T06:04:10.603Z,17.06
2018-05-21T06:05:10.557Z,17.18
2018-05-21T06:06:10.611Z,17.22
2018-05-21T06:07:10.629Z,17.29
2018-05-21T06:08:10.552Z,17.31
2018-05-21T06:09:10.622Z,17.28
2018-05-21T06:10:10.675Z,17.35
2018-05-21T06:11:10.732Z,17.33
2018-05-21T06:12:10.563Z,17.40
2018-05-21T06:13:10.600Z,17.51
2018-05-21T06:14:10.645Z,17.60
2018-05-21T06:15:10.564Z,17.65
2018-05-21T06:16:10.592Z,17.69
2018-05-21T06:17:10.543Z,17.66
2018-05-21T06:18:10.645Z,17.57
2018-05-21T06:19:10.653Z,17.51
2018-05-21T06:20:10.596Z,17.58
2018-05-21T06:21:10.644Z,17.68
2018-05-21T06:22:10.591Z,17.75
2018-05-21T06:23:10.600Z,17.87
2018-05-21T06:24:10.662Z,17.94
2018-05-21T06:25:10.600Z,17.95
2018-05-21T06:26:10.665Z,18.02
2018-05-21T06:27:10.593Z,18.18
2018-05-21T06:28:10.663Z,18.21
2018-05-21T06:29:10.594Z,18.35
2018-05-21T06:30:10.672Z,18.36
2018-05-21T06:31:10.604Z,18.38
2018-05-21T06:32:10.666Z,18.36
2018-05-21T06:33:10.669Z,18.48
2018-05-21T06:34:10.787Z,18.50
2018-05-21T06:35:10.604Z,18.43
2018-05-21T06:36:10.670Z,18.44
2018-05-21T06:37:10.609Z,18.41
2018-05-21T06:38:10.673Z,18.52
2018-05-21T06:39:10.606Z,18.48
2018-05-21T06:40:10.671Z,18.58
2018-05-21T06:41:10.681Z,18.64
2018-05-21T06:42:10.663Z,18.62
2018-05-21T06:43:10.673Z,18.59
2018-05-21T06:44:10.602Z,18.58
2018-05-21T06:45:10.610Z,18.70
2018-05-21T06:46:10.675Z,18.79
2018-05-21T06:47:10.565Z,18.76
2018-05-21T06:48:10.614Z,18.83
2018-05-21T06:49:10.582Z,18.84
2018-05-21T06:50:10.566Z,18.77
2018-05-21T06:51:10.670Z,18.80
2018-05-21T06:52:10.686Z,18.94
2018-05-21T06:53:10.683Z,19.06
2018-05-21T06:54:10.614Z,19.02
2018-05-21T06:55:10.616Z,19.10
2018-05-21T06:56:10.685Z,19.13
2018-05-21T06:57:10.622Z,19.17
2018-05-21T06:58:10.703Z,19.36
2018-05-21T06:59:10.644Z,19.47
2018-05-21T07:00:10.619Z,19.50
2018-05-21T07:01:10.613Z,19.54
2018-05-21T07:02:10.708Z,19.54
2018-05-21T07:03:10.658Z,19.68
2018-05-21T07:04:10.766Z,19.85
2018-05-21T07:05:10.728Z,19.88
2018-05-21T07:06:10.668Z,20.01
2018-05-21T07:07:10.650Z,20.14
2018-05-21T07:08:10.692Z,20.24
2018-05-21T07:09:10.710Z,20.42
2018-05-21T07:10:10.669Z,20.52
2018-05-21T07:11:10.768Z,20.56
2018-05-21T07:12:10.629Z,20.58
2018-05-21T07:13:10.695Z,20.73
2018-05-21T07:14:10.693Z,20.70
2018-05-21T07:15:10.696Z,20.57
2018-05-21T07:16:10.696Z,20.43
2018-05-21T07:17:10.695Z,20.38
2018-05-21T07:18:10.719Z,20.30
2018-05-21T07:19:10.698Z,20.34
2018-05-21T07:20:10.632Z,20.18
2018-05-21T07:21:10.703Z,20.10
2018-05-21T07:22:10.703Z,20.03
2018-05-21T07:23:10.699Z,20.16
2018-05-21T07:24:10.665Z,20.24
2018-05-21T07:25:10.646Z,20.38
2018-05-21T07:26:10.639Z,20.58
2018-05-21T07:27:10.704Z,20.65
2018-05-21T07:28:10.704Z,20.76
2018-05-21T07:29:10.708Z,20.69
2018-05-21T07:30:10.636Z,20.77
2018-05-21T07:31:10.641Z,20.80
2018-05-21T07:32:10.711Z,20.98
2018-05-21T07:33:10.684Z,20.80
2018-05-21T07:34:10.730Z,20.93
2018-05-21T07:35:10.723Z,21.05
2018-05-21T07:36:10.734Z,21.18
2018-05-21T07:37:10.608Z,21.16
2018-05-21T07:38:10.683Z,21.17
2018-05-21T07:39:10.617Z,21.18
2018-05-21T07:40:10.685Z,21.14
2018-05-21T07:41:10.733Z,21.22
2018-05-21T07:42:10.680Z,21.17
2018-05-21T07:43:10.716Z,21.20
2018-05-21T07:44:10.620Z,21.42
2018-05-21T07:45:10.685Z,21.32
2018-05-21T07:46:10.754Z,21.35
2018-05-21T07:47:10.750Z,21.20
2018-05-21T07:48:10.636Z,21.08
2018-05-21T07:49:10.676Z,21.02
2018-05-21T07:50:10.622Z,21.22
2018-05-21T07:51:10.698Z,21.38
2018-05-21T07:52:10.721Z,21.53
2018-05-21T07:53:10.585Z,21.50
2018-05-21T07:54:10.629Z,21.76
2018-05-21T07:55:10.706Z,21.94
2018-05-21T07:56:10.710Z,22.04
2018-05-21T07:57:10.711Z,22.00
2018-05-21T07:58:10.695Z,22.13
2018-05-21T07:59:10.722Z,22.32
2018-05-21T08:00:10.701Z,22.36
2018-05-21T08:01:10.591Z,22.38
2018-05-21T08:02:10.652Z,22.20
2018-05-21T08:03:10.673Z,22.06
2018-05-21T08:04:10.662Z,21.91
2018-05-21T08:05:10.686Z,21.72
2018-05-21T08:06:10.733Z,21.79
2018-05-21T08:07:10.741Z,21.83
2018-05-21T08:08:10.732Z,21.96
2018-05-21T08:09:10.737Z,21.90
2018-05-21T08:10:10.668Z,21.98
2018-05-21T08:11:10.736Z,22.02
2018-05-21T08:12:10.674Z,22.02
2018-05-21T08:13:10.731Z,22.01
2018-05-21T08:14:10.734Z,22.08
2018-05-21T08:15:10.736Z,22.08
2018-05-21T08:16:10.672Z,22.10
2018-05-21T08:17:10.664Z,22.14
2018-05-21T08:18:10.669Z,22.13
2018-05-21T08:19:10.702Z,22.10
2018-05-21T08:20:10.685Z,22.10
2018-05-21T08:21:10.738Z,22.14
2018-05-21T08:22:10.751Z,22.41
2018-05-21T08:23:10.716Z,22.34
2018-05-21T08:24:10.843Z,22.41
2018-05-21T08:25:10.780Z,22.42
2018-05-21T08:26:10.706Z,22.56
2018-05-21T08:27:10.752Z,22.60
2018-05-21T08:28:10.716Z,22.41
2018-05-21T08:29:10.726Z,22.21
2018-05-21T08:30:10.744Z,22.28
2018-05-21T08:31:10.728Z,22.28
2018-05-21T08:32:10.651Z,22.39
2018-05-21T08:33:10.782Z,22.61
2018-05-21T08:34:10.874Z,22.83
2018-05-21T08:35:10.711Z,23.00
2018-05-21T08:36:10.775Z,23.16
2018-05-21T08:37:10.780Z,23.27
2018-05-21T08:38:10.727Z,23.30
2018-05-21T08:39:10.724Z,23.12
2018-05-21T08:40:10.659Z,23.17
2018-05-21T08:41:10.773Z,23.26
2018-05-21T08:42:10.722Z,23.15
2018-05-21T08:43:10.708Z,22.91
2018-05-21T08:44:10.717Z,22.93
2018-05-21T08:45:10.688Z,22.87
2018-05-21T08:46:10.752Z,22.79
2018-05-21T08:47:10.791Z,22.75
2018-05-21T08:48:10.710Z,22.68
2018-05-21T08:49:10.712Z,22.70
2018-05-21T08:50:10.776Z,22.75
2018-05-21T08:51:10.714Z,22.82
2018-05-21T08:52:10.739Z,22.90
2018-05-21T08:53:10.757Z,23.01
2018-05-21T08:54:10.693Z,23.13
2018-05-21T08:55:10.812Z,23.01
2018-05-21T08:56:10.824Z,23.06
2018-05-21T08:57:10.762Z,23.16
2018-05-21T08:58:10.760Z,23.12
2018-05-21T08:59:10.730Z,22.98
2018-05-21T09:00:10.761Z,22.97
2018-05-21T09:01:10.757Z,23.08
2018-05-21T09:02:10.761Z,22.91
2018-05-21T09:03:10.773Z,22.84
2018-05-21T09:04:10.768Z,22.94
2018-05-21T09:05:10.743Z,22.88
2018-05-21T09:06:10.671Z,23.04
2018-05-21T09:07:10.737Z,23.09
2018-05-21T09:08:10.706Z,23.33
2018-05-21T09:09:10.746Z,23.54
2018-05-21T09:10:10.883Z,23.60
2018-05-21T09:11:10.789Z,23.35
2018-05-21T09:12:10.735Z,23.35
2018-05-21T09:13:10.754Z,23.45
2018-05-21T09:14:10.730Z,23.56
2018-05-21T09:15:10.815Z,23.65
2018-05-21T09:16:10.713Z,23.76
2018-05-21T09:17:10.811Z,23.89
2018-05-21T09:18:10.697Z,24.01
2018-05-21T09:19:10.743Z,24.18
2018-05-21T09:20:10.739Z,24.16
2018-05-21T09:21:10.800Z,24.20
2018-05-21T09:22:10.808Z,24.23
2018-05-21T09:23:10.743Z,24.33
2018-05-21T09:24:10.762Z,24.29
2018-05-21T09:25:10.734Z,24.09
2018-05-21T09:26:10.843Z,24.14
2018-05-21T09:27:10.689Z,24.25
2018-05-21T09:28:10.778Z,24.34
2018-05-21T09:29:10.691Z,24.08
2018-05-21T09:30:10.759Z,23.91
2018-05-21T09:31:10.693Z,23.83
2018-05-21T09:32:10.755Z,23.83
2018-05-21T09:33:10.785Z,23.98
2018-05-21T09:34:10.782Z,24.19
2018-05-21T09:35:10.729Z,24.22
2018-05-21T09:36:10.747Z,24.19
2018-05-21T09:37:10.815Z,24.14
2018-05-21T09:38:10.789Z,23.74
2018-05-21T09:39:10.789Z,23.60
2018-05-21T09:40:10.761Z,23.56
2018-05-21T09:41:10.793Z,23.79
2018-05-21T09:42:10.728Z,23.96
2018-05-21T09:43:10.781Z,24.22
2018-05-21T09:44:10.786Z,24.19
2018-05-21T09:45:10.787Z,24.02
2018-05-21T09:46:10.788Z,24.05
2018-05-21T09:47:10.783Z,23.93
2018-05-21T09:48:10.786Z,24.12
2018-05-21T09:49:10.700Z,24.29
2018-05-21T09:50:10.668Z,24.36
2018-05-21T09:51:10.788Z,24.37
2018-05-21T09:52:10.698Z,24.66
2018-05-21T09:53:10.799Z,24.82
2018-05-21T09:54:10.798Z,24.90
2018-05-21T09:55:10.806Z,25.02
2018-05-21T09:56:10.730Z,24.67
2018-05-21T09:57:10.806Z,24.71
2018-05-21T09:58:10.866Z,24.81
2018-05-21T09:59:10.801Z,24.95
2018-05-21T10:00:10.801Z,24.89
2018-05-21T10:01:10.742Z,24.90
2018-05-21T10:02:10.808Z,24.82
2018-05-21T10:03:10.708Z,24.70
2018-05-21T10:04:10.764Z,24.64
2018-05-21T10:05:10.835Z,24.59
2018-05-21T10:06:10.809Z,24.61
2018-05-21T10:07:10.788Z,24.60
2018-05-21T10:08:10.836Z,24.61
2018-05-21T10:09:10.767Z,24.67
2018-05-21T10:10:10.842Z,24.85
2018-05-21T10:11:10.787Z,25.02
2018-05-21T10:12:10.759Z,24.75
2018-05-21T10:13:10.792Z,24.56
2018-05-21T10:14:10.780Z,24.60
2018-05-21T10:15:10.835Z,24.68
2018-05-21T10:16:10.831Z,24.91
2018-05-21T10:17:10.852Z,24.93
2018-05-21T10:18:10.786Z,25.04
2018-05-21T10:19:10.841Z,25.01
2018-05-21T10:20:10.834Z,25.09
2018-05-21T10:21:10.725Z,25.12
2018-05-21T10:22:10.793Z,25.08
2018-05-21T10:23:10.818Z,24.94
2018-05-21T10:24:10.752Z,24.90
2018-05-21T10:25:10.821Z,24.98
2018-05-21T10:26:10.812Z,25.04
2018-05-21T10:27:10.757Z,25.05
2018-05-21T10:28:10.836Z,25.09
2018-05-21T10:29:10.831Z,25.30
2018-05-21T10:30:10.754Z,25.34
2018-05-21T10:31:10.828Z,25.29
2018-05-21T10:32:10.823Z,25.06
2018-05-21T10:33:10.831Z,24.90
2018-05-21T10:34:10.759Z,24.93
2018-05-21T10:35:10.758Z,25.00
2018-05-21T10:36:10.831Z,25.06
2018-05-21T10:37:10.787Z,24.82
2018-05-21T10:38:10.831Z,24.61
2018-05-21T10:39:10.828Z,24.57
2018-05-21T10:40:10.763Z,24.70
2018-05-21T10:41:10.831Z,24.56
2018-05-21T10:42:10.832Z,24.59
2018-05-21T10:43:10.867Z,24.77
2018-05-21T10:44:10.740Z,24.95
2018-05-21T10:45:10.872Z,24.93
2018-05-21T10:46:10.754Z,24.83
2018-05-21T10:47:10.861Z,25.00
2018-05-21T10:48:10.807Z,25.00
2018-05-21T10:49:10.865Z,24.98
2018-05-21T10:50:10.875Z,24.90
2018-05-21T10:51:10.807Z,24.82
2018-05-21T10:52:10.809Z,24.97
2018-05-21T10:53:10.837Z,25.17
2018-05-21T10:54:10.787Z,25.26
2018-05-21T10:55:10.769Z,25.24
2018-05-21T10:56:10.859Z,25.24
2018-05-21T10:57:10.840Z,25.27
2018-05-21T10:58:10.780Z,25.38
2018-05-21T10:59:10.840Z,25.51
2018-05-21T11:00:10.840Z,25.68
2018-05-21T11:01:10.777Z,25.75
2018-05-21T11:02:10.849Z,25.77
2018-05-21T11:03:10.768Z,25.92
2018-05-21T11:04:10.839Z,26.00
2018-05-21T11:05:10.862Z,25.88
2018-05-21T11:06:10.867Z,25.97
2018-05-21T11:07:10.883Z,25.81
2018-05-21T11:08:10.806Z,25.66
2018-05-21T11:09:10.886Z,25.53
2018-05-21T11:10:10.850Z,25.57
2018-05-21T11:11:10.785Z,25.57
2018-05-21T11:12:10.868Z,25.55
2018-05-21T11:13:10.852Z,25.48
2018-05-21T11:14:10.810Z,25.62
2018-05-21T11:15:10.874Z,25.82
2018-05-21T11:16:10.771Z,25.86
2018-05-21T11:17:10.850Z,25.89
2018-05-21T11:18:10.833Z,25.64
2018-05-21T11:19:10.792Z,25.73
2018-05-21T11:20:10.760Z,25.75
2018-05-21T11:21:10.778Z,25.86
2018-05-21T11:22:10.839Z,25.64
2018-05-21T11:23:10.821Z,25.64
2018-05-21T11:24:10.819Z,25.55
2018-05-21T11:25:10.886Z,25.66
2018-05-21T11:26:10.780Z,25.75
2018-05-21T11:27:10.800Z,25.89
2018-05-21T11:28:10.834Z,26.07
2018-05-21T11:29:10.894Z,26.11
2018-05-21T11:30:10.841Z,26.07
2018-05-21T11:31:10.830Z,25.97
2018-05-21T11:32:10.833Z,25.96
2018-05-21T11:33:10.864Z,26.02
2018-05-21T11:34:10.803Z,26.04
2018-05-21T11:35:10.799Z,25.91
2018-05-21T11:36:10.797Z,25.91
2018-05-21T11:37:10.862Z,25.74
2018-05-21T11:38:10.865Z,25.78
2018-05-21T11:39:10.881Z,25.64
2018-05-21T11:40:10.800Z,25.73
2018-05-21T11:41:10.805Z,25.71
2018-05-21T11:42:10.801Z,25.77
2018-05-21T11:43:10.775Z,25.73
2018-05-21T11:44:10.899Z,25.70
2018-05-21T11:45:10.680Z,25.68
2018-05-21T11:46:10.894Z,25.68
2018-05-21T11:47:10.913Z,25.67
2018-05-21T11:48:10.847Z,25.68
2018-05-21T11:49:10.847Z,25.84
2018-05-21T11:50:10.907Z,25.84
2018-05-21T11:51:10.853Z,25.56
2018-05-21T11:52:10.834Z,25.57
2018-05-21T11:53:10.857Z,25.73
2018-05-21T11:54:10.828Z,25.89
2018-05-21T11:55:10.774Z,26.00
2018-05-21T11:56:10.867Z,26.10
2018-05-21T11:57:10.829Z,26.38
2018-05-21T11:58:10.857Z,26.40
2018-05-21T11:59:10.812Z,26.37
2018-05-21T12:00:10.830Z,26.33
2018-05-21T12:01:10.854Z,26.44
2018-05-21T12:02:10.808Z,26.34
2018-05-21T12:03:10.911Z,26.30
2018-05-21T12:04:10.910Z,26.43
2018-05-21T12:05:10.880Z,26.32
2018-05-21T12:06:10.845Z,25.67
2018-05-21T12:07:10.850Z,25.82
2018-05-21T12:08:10.888Z,25.99
2018-05-21T12:09:10.911Z,26.04
2018-05-21T12:10:10.863Z,26.18
2018-05-21T12:11:10.790Z,26.04
2018-05-21T12:12:10.856Z,25.77
2018-05-21T12:13:10.794Z,25.73
2018-05-21T12:14:10.843Z,25.53
2018-05-21T12:15:10.887Z,25.49
2018-05-21T12:16:10.874Z,25.51
2018-05-21T12:17:10.880Z,25.63
2018-05-21T12:18:10.819Z,25.63
2018-05-21T12:19:10.772Z,25.93
2018-05-21T12:20:10.778Z,25.97
2018-05-21T12:21:10.827Z,26.02
2018-05-21T12:22:10.888Z,25.99
2018-05-21T12:23:10.795Z,26.08
2018-05-21T12:24:10.793Z,26.06
2018-05-21T12:25:10.872Z,26.18
2018-05-21T12:26:10.757Z,26.38
2018-05-21T12:27:10.852Z,26.44
2018-05-21T12:28:10.856Z,26.43
2018-05-21T12:29:10.789Z,26.47
2018-05-21T12:30:10.855Z,26.37
2018-05-21T12:31:10.760Z,26.45
2018-05-21T12:32:10.846Z,26.41
2018-05-21T12:33:10.893Z,26.32
2018-05-21T12:34:10.804Z,26.34
2018-05-21T12:35:10.893Z,26.43
2018-05-21T12:36:10.776Z,26.51
2018-05-21T12:37:10.901Z,26.55
2018-05-21T12:38:10.835Z,26.72
2018-05-21T12:39:10.845Z,26.82
2018-05-21T12:40:10.835Z,26.84
2018-05-21T12:41:10.900Z,26.78
2018-05-21T12:42:10.906Z,26.67
2018-05-21T12:43:10.895Z,26.64
2018-05-21T12:44:10.896Z,26.60
2018-05-21T12:45:10.840Z,26.55
2018-05-21T12:46:10.872Z,26.48
2018-05-21T12:47:10.861Z,26.36
2018-05-21T12:48:10.894Z,26.41
2018-05-21T12:49:10.898Z,26.14
2018-05-21T12:50:10.909Z,25.95
2018-05-21T12:51:10.911Z,26.08
2018-05-21T12:52:10.863Z,26.15
2018-05-21T12:53:10.917Z,26.38
2018-05-21T12:54:10.945Z,26.40
2018-05-21T12:55:10.817Z,26.26
2018-05-21T12:56:10.913Z,26.41
2018-05-21T12:57:10.890Z,26.55
2018-05-21T12:58:10.939Z,26.68
2018-05-21T12:59:10.895Z,26.72
2018-05-21T13:00:10.937Z,26.75
2018-05-21T13:01:10.947Z,26.68
2018-05-21T13:02:10.959Z,26.88
2018-05-21T13:03:10.872Z,26.97